McFarland, Kansas
Current Conditions -  °F | °C
As of 11:52 AM on Friday 21 Nov 2014 (Local Time) from KMHK Reporting Station
Overcast Overcast  
Wind Chill: 32°   Ceiling: 1200
Heat Index: 38°   Visibility: 9mi
Dew Point: 28°   Wind: 8mph
Humidity: 68%   Direction: 90°E
Pressure: 30.13"   Gusts: NA
Location:  39.05°N, 96.24°W
Report Text: KMHK 211752Z 09007KT 9SM OVC012 03/M02 A3013 RMK AO2 SLP214 T00331022 10033 21056 58018
Loading
Personal Weather Stations






























Interactive Weather Map New forecast layout! Learn more

10-Day Weather Forecast

Advertisements
Track Severe Weather on mobile